sensor_id;sensor_type;location;lat;lon;timestamp;P1;durP1;ratioP1;P2;durP2;ratioP2
46815;SDS011;32787;53.316;8.670;2023-03-16T00:00:35;14.60;;;5.25;;
46815;SDS011;32787;53.316;8.670;2023-03-16T00:03:01;14.80;;;5.38;;
46815;SDS011;32787;53.316;8.670;2023-03-16T00:05:27;14.05;;;5.90;;
46815;SDS011;32787;53.316;8.670;2023-03-16T00:07:53;15.15;;;5.50;;
46815;SDS011;32787;53.316;8.670;2023-03-16T00:10:19;11.00;;;5.22;;
46815;SDS011;32787;53.316;8.670;2023-03-16T00:12:54;12.10;;;5.72;;
46815;SDS011;32787;53.316;8.670;2023-03-16T00:15:20;17.08;;;5.40;;
46815;SDS011;32787;53.316;8.670;2023-03-16T00:17:46;13.50;;;5.95;;
46815;SDS011;32787;53.316;8.670;2023-03-16T00:20:13;13.88;;;5.75;;
46815;SDS011;32787;53.316;8.670;2023-03-16T00:22:39;12.15;;;5.32;;
46815;SDS011;32787;53.316;8.670;2023-03-16T00:25:06;10.43;;;5.25;;
46815;SDS011;32787;53.316;8.670;2023-03-16T00:27:33;12.75;;;4.90;;
46815;SDS011;32787;53.316;8.670;2023-03-16T00:29:58;11.20;;;4.50;;
46815;SDS011;32787;53.316;8.670;2023-03-16T00:32:34;14.15;;;5.22;;
46815;SDS011;32787;53.316;8.670;2023-03-16T00:35:02;12.63;;;5.28;;
46815;SDS011;32787;53.316;8.670;2023-03-16T00:37:29;11.48;;;4.88;;
46815;SDS011;32787;53.316;8.670;2023-03-16T00:39:56;14.48;;;5.22;;
46815;SDS011;32787;53.316;8.670;2023-03-16T00:42:23;12.25;;;5.10;;
46815;SDS011;32787;53.316;8.670;2023-03-16T00:44:51;11.35;;;5.03;;
46815;SDS011;32787;53.316;8.670;2023-03-16T00:47:21;14.50;;;5.70;;
46815;SDS011;32787;53.316;8.670;2023-03-16T00:49:47;12.68;;;5.18;;
46815;SDS011;32787;53.316;8.670;2023-03-16T00:52:13;11.02;;;4.93;;
46815;SDS011;32787;53.316;8.670;2023-03-16T00:54:39;9.82;;;4.82;;
46815;SDS011;32787;53.316;8.670;2023-03-16T00:57:08;15.32;;;4.90;;
46815;SDS011;32787;53.316;8.670;2023-03-16T00:59:36;15.13;;;6.78;;
46815;SDS011;32787;53.316;8.670;2023-03-16T01:02:02;12.15;;;5.55;;
46815;SDS011;32787;53.316;8.670;2023-03-16T01:04:29;9.93;;;4.93;;
46815;SDS011;32787;53.316;8.670;2023-03-16T01:06:56;13.00;;;5.00;;
46815;SDS011;32787;53.316;8.670;2023-03-16T01:09:22;11.55;;;5.35;;
46815;SDS011;32787;53.316;8.670;2023-03-16T01:11:47;13.27;;;5.38;;
46815;SDS011;32787;53.316;8.670;2023-03-16T01:14:17;16.17;;;5.90;;
46815;SDS011;32787;53.316;8.670;2023-03-16T01:16:43;15.50;;;5.15;;
46815;SDS011;32787;53.316;8.670;2023-03-16T01:19:10;12.05;;;4.82;;
46815;SDS011;32787;53.316;8.670;2023-03-16T01:21:39;14.30;;;4.57;;
46815;SDS011;32787;53.316;8.670;2023-03-16T01:24:06;11.63;;;5.32;;
46815;SDS011;32787;53.316;8.670;2023-03-16T01:26:33;11.65;;;4.70;;
46815;SDS011;32787;53.316;8.670;2023-03-16T01:28:58;11.77;;;4.97;;
46815;SDS011;32787;53.316;8.670;2023-03-16T01:31:24;10.57;;;5.18;;
46815;SDS011;32787;53.316;8.670;2023-03-16T01:33:50;12.90;;;4.82;;
46815;SDS011;32787;53.316;8.670;2023-03-16T01:36:17;11.98;;;5.65;;
46815;SDS011;32787;53.316;8.670;2023-03-16T01:38:43;11.15;;;4.82;;
46815;SDS011;32787;53.316;8.670;2023-03-16T01:41:10;10.00;;;4.28;;
46815;SDS011;32787;53.316;8.670;2023-03-16T01:43:37;11.88;;;4.68;;
46815;SDS011;32787;53.316;8.670;2023-03-16T01:51:18;13.45;;;4.90;;
46815;SDS011;32787;53.316;8.670;2023-03-16T01:53:49;8.00;;;3.42;;
46815;SDS011;32787;53.316;8.670;2023-03-16T01:56:18;10.50;;;3.92;;
46815;SDS011;32787;53.316;8.670;2023-03-16T01:58:51;9.38;;;3.85;;
46815;SDS011;32787;53.316;8.670;2023-03-16T02:01:22;10.13;;;3.65;;
46815;SDS011;32787;53.316;8.670;2023-03-16T02:03:51;10.63;;;3.25;;
46815;SDS011;32787;53.316;8.670;2023-03-16T02:06:21;10.82;;;3.67;;
46815;SDS011;32787;53.316;8.670;2023-03-16T02:08:47;9.85;;;3.20;;
46815;SDS011;32787;53.316;8.670;2023-03-16T02:11:14;8.68;;;3.47;;
46815;SDS011;32787;53.316;8.670;2023-03-16T02:13:42;9.10;;;3.30;;
46815;SDS011;32787;53.316;8.670;2023-03-16T02:16:09;7.45;;;3.35;;
46815;SDS011;32787;53.316;8.670;2023-03-16T02:18:38;10.77;;;3.20;;
46815;SDS011;32787;53.316;8.670;2023-03-16T02:23:32;8.10;;;3.30;;
46815;SDS011;32787;53.316;8.670;2023-03-16T02:26:00;11.50;;;3.80;;
46815;SDS011;32787;53.316;8.670;2023-03-16T02:28:33;8.07;;;3.20;;
46815;SDS011;32787;53.316;8.670;2023-03-16T02:31:15;9.98;;;3.25;;
46815;SDS011;32787;53.316;8.670;2023-03-16T02:33:41;13.30;;;3.88;;
46815;SDS011;32787;53.316;8.670;2023-03-16T02:36:08;13.07;;;3.70;;
46815;SDS011;32787;53.316;8.670;2023-03-16T02:38:34;9.35;;;3.45;;
46815;SDS011;32787;53.316;8.670;2023-03-16T02:41:01;12.98;;;3.65;;
46815;SDS011;32787;53.316;8.670;2023-03-16T02:43:45;13.80;;;4.10;;
46815;SDS011;32787;53.316;8.670;2023-03-16T02:46:18;12.63;;;3.92;;
46815;SDS011;32787;53.316;8.670;2023-03-16T02:48:50;11.32;;;3.28;;
46815;SDS011;32787;53.316;8.670;2023-03-16T02:51:27;12.23;;;4.60;;
46815;SDS011;32787;53.316;8.670;2023-03-16T02:53:53;14.93;;;4.10;;
46815;SDS011;32787;53.316;8.670;2023-03-16T02:56:18;12.85;;;4.38;;
46815;SDS011;32787;53.316;8.670;2023-03-16T02:58:44;16.13;;;4.90;;
46815;SDS011;32787;53.316;8.670;2023-03-16T03:01:09;17.27;;;5.30;;
46815;SDS011;32787;53.316;8.670;2023-03-16T03:03:35;19.85;;;5.40;;
46815;SDS011;32787;53.316;8.670;2023-03-16T03:06:01;20.55;;;6.38;;
46815;SDS011;32787;53.316;8.670;2023-03-16T03:08:26;16.38;;;5.00;;
46815;SDS011;32787;53.316;8.670;2023-03-16T03:10:52;23.33;;;6.55;;
46815;SDS011;32787;53.316;8.670;2023-03-16T03:13:17;18.65;;;5.05;;
46815;SDS011;32787;53.316;8.670;2023-03-16T03:15:43;17.23;;;4.45;;
46815;SDS011;32787;53.316;8.670;2023-03-16T03:18:09;11.40;;;3.67;;
46815;SDS011;32787;53.316;8.670;2023-03-16T03:20:35;13.05;;;4.13;;
46815;SDS011;32787;53.316;8.670;2023-03-16T03:23:01;10.65;;;3.42;;
46815;SDS011;32787;53.316;8.670;2023-03-16T03:25:27;20.02;;;6.20;;
46815;SDS011;32787;53.316;8.670;2023-03-16T03:27:52;26.20;;;7.93;;
46815;SDS011;32787;53.316;8.670;2023-03-16T03:30:19;25.85;;;7.70;;
46815;SDS011;32787;53.316;8.670;2023-03-16T03:32:46;18.75;;;6.50;;
46815;SDS011;32787;53.316;8.670;2023-03-16T03:35:13;14.63;;;4.68;;
46815;SDS011;32787;53.316;8.670;2023-03-16T03:37:40;18.52;;;6.07;;
46815;SDS011;32787;53.316;8.670;2023-03-16T03:40:07;15.73;;;4.72;;
46815;SDS011;32787;53.316;8.670;2023-03-16T03:42:34;22.17;;;7.00;;
46815;SDS011;32787;53.316;8.670;2023-03-16T03:45:00;19.90;;;6.57;;
46815;SDS011;32787;53.316;8.670;2023-03-16T03:47:26;13.40;;;5.43;;
46815;SDS011;32787;53.316;8.670;2023-03-16T03:49:52;10.93;;;3.83;;
46815;SDS011;32787;53.316;8.670;2023-03-16T03:52:17;11.50;;;4.32;;
46815;SDS011;32787;53.316;8.670;2023-03-16T03:54:43;11.75;;;4.40;;
46815;SDS011;32787;53.316;8.670;2023-03-16T03:57:09;13.15;;;3.75;;
46815;SDS011;32787;53.316;8.670;2023-03-16T03:59:35;10.20;;;4.13;;
46815;SDS011;32787;53.316;8.670;2023-03-16T04:02:06;11.05;;;3.85;;
46815;SDS011;32787;53.316;8.670;2023-03-16T04:04:32;16.88;;;3.90;;
46815;SDS011;32787;53.316;8.670;2023-03-16T04:06:58;8.40;;;3.60;;
46815;SDS011;32787;53.316;8.670;2023-03-16T04:09:24;10.30;;;3.65;;
46815;SDS011;32787;53.316;8.670;2023-03-16T04:11:50;9.88;;;3.60;;
46815;SDS011;32787;53.316;8.670;2023-03-16T04:14:15;8.68;;;3.20;;
46815;SDS011;32787;53.316;8.670;2023-03-16T04:16:41;8.80;;;3.63;;
46815;SDS011;32787;53.316;8.670;2023-03-16T04:19:08;10.27;;;4.38;;
46815;SDS011;32787;53.316;8.670;2023-03-16T04:21:36;9.95;;;3.90;;
46815;SDS011;32787;53.316;8.670;2023-03-16T04:24:02;9.57;;;3.90;;
46815;SDS011;32787;53.316;8.670;2023-03-16T04:26:29;13.25;;;3.88;;
46815;SDS011;32787;53.316;8.670;2023-03-16T04:28:56;9.05;;;3.70;;
46815;SDS011;32787;53.316;8.670;2023-03-16T04:31:23;9.68;;;3.65;;
46815;SDS011;32787;53.316;8.670;2023-03-16T04:33:48;10.98;;;4.00;;
46815;SDS011;32787;53.316;8.670;2023-03-16T04:36:14;9.93;;;4.18;;
46815;SDS011;32787;53.316;8.670;2023-03-16T04:38:40;12.63;;;4.72;;
46815;SDS011;32787;53.316;8.670;2023-03-16T04:41:06;9.35;;;4.07;;
46815;SDS011;32787;53.316;8.670;2023-03-16T04:43:32;11.13;;;3.90;;
46815;SDS011;32787;53.316;8.670;2023-03-16T04:46:01;11.00;;;4.13;;
46815;SDS011;32787;53.316;8.670;2023-03-16T04:48:28;9.38;;;3.72;;
46815;SDS011;32787;53.316;8.670;2023-03-16T04:50:56;9.27;;;4.05;;
46815;SDS011;32787;53.316;8.670;2023-03-16T04:53:22;10.68;;;4.07;;
46815;SDS011;32787;53.316;8.670;2023-03-16T04:55:48;12.48;;;3.97;;
46815;SDS011;32787;53.316;8.670;2023-03-16T04:58:13;9.80;;;4.63;;
46815;SDS011;32787;53.316;8.670;2023-03-16T05:00:39;12.40;;;4.35;;
46815;SDS011;32787;53.316;8.670;2023-03-16T05:03:06;11.00;;;4.32;;
46815;SDS011;32787;53.316;8.670;2023-03-16T05:05:34;10.60;;;5.03;;
46815;SDS011;32787;53.316;8.670;2023-03-16T05:08:00;9.23;;;4.40;;
46815;SDS011;32787;53.316;8.670;2023-03-16T05:10:27;13.00;;;5.80;;
46815;SDS011;32787;53.316;8.670;2023-03-16T05:12:52;11.65;;;4.70;;
46815;SDS011;32787;53.316;8.670;2023-03-16T05:15:18;13.38;;;4.47;;
46815;SDS011;32787;53.316;8.670;2023-03-16T05:17:44;13.70;;;4.88;;
46815;SDS011;32787;53.316;8.670;2023-03-16T05:20:11;10.00;;;4.78;;
46815;SDS011;32787;53.316;8.670;2023-03-16T05:22:41;11.70;;;4.63;;
46815;SDS011;32787;53.316;8.670;2023-03-16T05:25:09;8.75;;;4.07;;
46815;SDS011;32787;53.316;8.670;2023-03-16T05:27:39;11.25;;;5.20;;
46815;SDS011;32787;53.316;8.670;2023-03-16T05:30:13;14.77;;;5.68;;
46815;SDS011;32787;53.316;8.670;2023-03-16T05:32:42;10.52;;;4.28;;
46815;SDS011;32787;53.316;8.670;2023-03-16T05:35:09;10.52;;;4.80;;
46815;SDS011;32787;53.316;8.670;2023-03-16T05:37:37;14.10;;;4.90;;
46815;SDS011;32787;53.316;8.670;2023-03-16T05:40:04;8.85;;;4.28;;
46815;SDS011;32787;53.316;8.670;2023-03-16T05:42:47;15.13;;;4.95;;
46815;SDS011;32787;53.316;8.670;2023-03-16T05:45:18;12.20;;;5.10;;
46815;SDS011;32787;53.316;8.670;2023-03-16T05:47:44;13.27;;;5.55;;
46815;SDS011;32787;53.316;8.670;2023-03-16T05:50:10;13.77;;;5.13;;
46815;SDS011;32787;53.316;8.670;2023-03-16T05:52:37;11.25;;;5.25;;
46815;SDS011;32787;53.316;8.670;2023-03-16T05:55:04;12.60;;;5.28;;
46815;SDS011;32787;53.316;8.670;2023-03-16T05:57:31;13.65;;;5.15;;
46815;SDS011;32787;53.316;8.670;2023-03-16T05:59:58;11.75;;;4.40;;
46815;SDS011;32787;53.316;8.670;2023-03-16T06:02:24;11.60;;;4.57;;
46815;SDS011;32787;53.316;8.670;2023-03-16T06:04:50;9.82;;;4.10;;
46815;SDS011;32787;53.316;8.670;2023-03-16T06:07:16;12.90;;;4.68;;
46815;SDS011;32787;53.316;8.670;2023-03-16T06:09:41;12.20;;;5.57;;
46815;SDS011;32787;53.316;8.670;2023-03-16T06:12:07;11.35;;;6.40;;
46815;SDS011;32787;53.316;8.670;2023-03-16T06:14:33;18.33;;;4.85;;
46815;SDS011;32787;53.316;8.670;2023-03-16T06:16:59;10.38;;;4.65;;
46815;SDS011;32787;53.316;8.670;2023-03-16T06:19:25;12.00;;;5.40;;
46815;SDS011;32787;53.316;8.670;2023-03-16T06:21:50;9.02;;;3.65;;
46815;SDS011;32787;53.316;8.670;2023-03-16T06:24:16;10.07;;;4.03;;
46815;SDS011;32787;53.316;8.670;2023-03-16T06:26:42;11.52;;;4.88;;
46815;SDS011;32787;53.316;8.670;2023-03-16T06:29:07;14.95;;;5.15;;
46815;SDS011;32787;53.316;8.670;2023-03-16T06:31:33;11.27;;;4.68;;
46815;SDS011;32787;53.316;8.670;2023-03-16T06:33:59;7.88;;;3.88;;
46815;SDS011;32787;53.316;8.670;2023-03-16T06:36:25;8.75;;;4.07;;
46815;SDS011;32787;53.316;8.670;2023-03-16T06:38:50;10.15;;;3.65;;
46815;SDS011;32787;53.316;8.670;2023-03-16T06:41:16;9.52;;;3.50;;
46815;SDS011;32787;53.316;8.670;2023-03-16T06:43:42;9.52;;;3.10;;
46815;SDS011;32787;53.316;8.670;2023-03-16T06:46:07;7.40;;;3.45;;
46815;SDS011;32787;53.316;8.670;2023-03-16T06:48:33;12.27;;;3.28;;
46815;SDS011;32787;53.316;8.670;2023-03-16T06:50:58;9.38;;;3.40;;
46815;SDS011;32787;53.316;8.670;2023-03-16T06:53:24;10.80;;;3.30;;
46815;SDS011;32787;53.316;8.670;2023-03-16T06:55:50;12.13;;;3.15;;
46815;SDS011;32787;53.316;8.670;2023-03-16T06:58:16;8.85;;;3.42;;
46815;SDS011;32787;53.316;8.670;2023-03-16T07:00:42;12.40;;;3.40;;
46815;SDS011;32787;53.316;8.670;2023-03-16T07:03:07;8.98;;;3.50;;
46815;SDS011;32787;53.316;8.670;2023-03-16T07:05:33;11.85;;;3.80;;
46815;SDS011;32787;53.316;8.670;2023-03-16T07:07:58;8.15;;;3.40;;
46815;SDS011;32787;53.316;8.670;2023-03-16T07:10:25;15.77;;;4.45;;
46815;SDS011;32787;53.316;8.670;2023-03-16T07:12:50;8.27;;;3.60;;
46815;SDS011;32787;53.316;8.670;2023-03-16T07:15:16;12.90;;;3.83;;
46815;SDS011;32787;53.316;8.670;2023-03-16T07:17:43;10.32;;;2.95;;
46815;SDS011;32787;53.316;8.670;2023-03-16T07:20:09;8.52;;;3.17;;
46815;SDS011;32787;53.316;8.670;2023-03-16T07:22:36;8.93;;;3.08;;
46815;SDS011;32787;53.316;8.670;2023-03-16T07:25:03;8.27;;;3.42;;
46815;SDS011;32787;53.316;8.670;2023-03-16T07:27:29;12.20;;;3.42;;
46815;SDS011;32787;53.316;8.670;2023-03-16T07:29:55;10.23;;;3.35;;
46815;SDS011;32787;53.316;8.670;2023-03-16T07:32:21;9.18;;;3.05;;
46815;SDS011;32787;53.316;8.670;2023-03-16T07:34:47;9.82;;;2.90;;
46815;SDS011;32787;53.316;8.670;2023-03-16T07:37:13;9.23;;;2.85;;
46815;SDS011;32787;53.316;8.670;2023-03-16T07:39:40;12.00;;;2.95;;
46815;SDS011;32787;53.316;8.670;2023-03-16T07:42:06;8.32;;;2.92;;
46815;SDS011;32787;53.316;8.670;2023-03-16T07:44:32;9.18;;;3.20;;
46815;SDS011;32787;53.316;8.670;2023-03-16T07:46:58;10.27;;;3.13;;
46815;SDS011;32787;53.316;8.670;2023-03-16T07:49:23;8.65;;;2.85;;
46815;SDS011;32787;53.316;8.670;2023-03-16T07:51:49;9.13;;;3.38;;
46815;SDS011;32787;53.316;8.670;2023-03-16T07:54:15;9.60;;;2.90;;
46815;SDS011;32787;53.316;8.670;2023-03-16T07:56:41;7.68;;;3.55;;
46815;SDS011;32787;53.316;8.670;2023-03-16T07:59:07;8.02;;;2.38;;
46815;SDS011;32787;53.316;8.670;2023-03-16T08:01:32;8.52;;;2.72;;
46815;SDS011;32787;53.316;8.670;2023-03-16T08:03:58;12.80;;;2.88;;
46815;SDS011;32787;53.316;8.670;2023-03-16T08:06:25;9.85;;;2.65;;
46815;SDS011;32787;53.316;8.670;2023-03-16T08:08:51;9.88;;;3.00;;
46815;SDS011;32787;53.316;8.670;2023-03-16T08:11:17;9.50;;;3.05;;
46815;SDS011;32787;53.316;8.670;2023-03-16T08:13:48;7.72;;;2.80;;
46815;SDS011;32787;53.316;8.670;2023-03-16T08:16:19;8.15;;;2.95;;
46815;SDS011;32787;53.316;8.670;2023-03-16T08:18:45;7.25;;;3.08;;
46815;SDS011;32787;53.316;8.670;2023-03-16T08:21:11;9.05;;;3.40;;
46815;SDS011;32787;53.316;8.670;2023-03-16T08:23:36;6.70;;;2.47;;
46815;SDS011;32787;53.316;8.670;2023-03-16T08:26:02;8.10;;;2.45;;
46815;SDS011;32787;53.316;8.670;2023-03-16T08:28:32;7.93;;;2.40;;
46815;SDS011;32787;53.316;8.670;2023-03-16T08:30:59;9.52;;;2.75;;
46815;SDS011;32787;53.316;8.670;2023-03-16T08:33:24;8.68;;;3.30;;
46815;SDS011;32787;53.316;8.670;2023-03-16T08:35:50;10.27;;;2.88;;
46815;SDS011;32787;53.316;8.670;2023-03-16T08:38:16;8.10;;;2.63;;
46815;SDS011;32787;53.316;8.670;2023-03-16T08:40:43;8.75;;;2.90;;
46815;SDS011;32787;53.316;8.670;2023-03-16T08:43:13;8.40;;;3.00;;
46815;SDS011;32787;53.316;8.670;2023-03-16T08:45:40;10.05;;;2.72;;
46815;SDS011;32787;53.316;8.670;2023-03-16T08:48:08;9.35;;;2.65;;
46815;SDS011;32787;53.316;8.670;2023-03-16T08:50:38;9.20;;;2.47;;
46815;SDS011;32787;53.316;8.670;2023-03-16T08:53:05;9.25;;;2.70;;
46815;SDS011;32787;53.316;8.670;2023-03-16T08:55:31;10.65;;;3.35;;
46815;SDS011;32787;53.316;8.670;2023-03-16T08:57:57;9.63;;;3.08;;
46815;SDS011;32787;53.316;8.670;2023-03-16T09:00:24;7.95;;;3.00;;
46815;SDS011;32787;53.316;8.670;2023-03-16T09:02:49;9.90;;;2.78;;
46815;SDS011;32787;53.316;8.670;2023-03-16T09:05:15;7.35;;;2.72;;
46815;SDS011;32787;53.316;8.670;2023-03-16T09:07:42;8.85;;;2.70;;
46815;SDS011;32787;53.316;8.670;2023-03-16T09:10:08;6.97;;;2.75;;
46815;SDS011;32787;53.316;8.670;2023-03-16T09:12:37;7.72;;;3.13;;
46815;SDS011;32787;53.316;8.670;2023-03-16T09:15:04;7.20;;;2.65;;
46815;SDS011;32787;53.316;8.670;2023-03-16T09:17:31;8.85;;;2.85;;
46815;SDS011;32787;53.316;8.670;2023-03-16T09:19:57;7.45;;;2.78;;
46815;SDS011;32787;53.316;8.670;2023-03-16T09:22:23;8.77;;;2.97;;
46815;SDS011;32787;53.316;8.670;2023-03-16T09:24:49;10.55;;;2.97;;
46815;SDS011;32787;53.316;8.670;2023-03-16T09:27:15;10.82;;;3.28;;
46815;SDS011;32787;53.316;8.670;2023-03-16T09:29:42;7.85;;;3.03;;
46815;SDS011;32787;53.316;8.670;2023-03-16T09:32:08;6.72;;;2.33;;
46815;SDS011;32787;53.316;8.670;2023-03-16T09:34:34;9.15;;;2.88;;
46815;SDS011;32787;53.316;8.670;2023-03-16T09:36:59;6.90;;;2.50;;
46815;SDS011;32787;53.316;8.670;2023-03-16T09:39:25;6.70;;;2.50;;
46815;SDS011;32787;53.316;8.670;2023-03-16T09:46:58;8.63;;;2.70;;
46815;SDS011;32787;53.316;8.670;2023-03-16T09:49:35;9.48;;;3.05;;
46815;SDS011;32787;53.316;8.670;2023-03-16T09:54:58;7.47;;;2.25;;
46815;SDS011;32787;53.316;8.670;2023-03-16T09:57:31;8.13;;;2.80;;
46815;SDS011;32787;53.316;8.670;2023-03-16T10:00:19;7.05;;;2.60;;
46815;SDS011;32787;53.316;8.670;2023-03-16T10:05:15;7.47;;;2.72;;
46815;SDS011;32787;53.316;8.670;2023-03-16T10:16:17;13.27;;;3.10;;
46815;SDS011;32787;53.316;8.670;2023-03-16T10:18:49;7.32;;;2.70;;
46815;SDS011;32787;53.316;8.670;2023-03-16T10:21:21;8.43;;;3.55;;
46815;SDS011;32787;53.316;8.670;2023-03-16T10:23:48;6.88;;;2.60;;
46815;SDS011;32787;53.316;8.670;2023-03-16T10:26:25;5.45;;;2.65;;
46815;SDS011;32787;53.316;8.670;2023-03-16T10:28:58;8.32;;;2.97;;
46815;SDS011;32787;53.316;8.670;2023-03-16T10:31:25;7.10;;;2.95;;
46815;SDS011;32787;53.316;8.670;2023-03-16T10:33:53;7.00;;;2.47;;
46815;SDS011;32787;53.316;8.670;2023-03-16T10:36:28;6.80;;;2.70;;
46815;SDS011;32787;53.316;8.670;2023-03-16T10:38:59;6.65;;;2.30;;
46815;SDS011;32787;53.316;8.670;2023-03-16T10:41:30;7.05;;;2.40;;
46815;SDS011;32787;53.316;8.670;2023-03-16T10:46:44;7.60;;;2.53;;
46815;SDS011;32787;53.316;8.670;2023-03-16T10:49:57;6.22;;;2.53;;
46815;SDS011;32787;53.316;8.670;2023-03-16T10:52:19;6.97;;;2.50;;
46815;SDS011;32787;53.316;8.670;2023-03-16T10:55:11;7.38;;;2.83;;
46815;SDS011;32787;53.316;8.670;2023-03-16T10:57:47;7.20;;;2.85;;
46815;SDS011;32787;53.316;8.670;2023-03-16T11:02:48;8.07;;;2.83;;
46815;SDS011;32787;53.316;8.670;2023-03-16T11:10:36;9.05;;;2.83;;
46815;SDS011;32787;53.316;8.670;2023-03-16T11:13:16;7.45;;;2.50;;
46815;SDS011;32787;53.316;8.670;2023-03-16T11:18:35;9.15;;;2.80;;
46815;SDS011;32787;53.316;8.670;2023-03-16T11:21:12;7.70;;;2.70;;
46815;SDS011;32787;53.316;8.670;2023-03-16T11:23:50;7.57;;;2.28;;
46815;SDS011;32787;53.316;8.670;2023-03-16T11:26:22;6.28;;;2.63;;
46815;SDS011;32787;53.316;8.670;2023-03-16T11:28:59;10.15;;;2.40;;
46815;SDS011;32787;53.316;8.670;2023-03-16T11:34:15;6.67;;;2.67;;
46815;SDS011;32787;53.316;8.670;2023-03-16T11:39:47;6.53;;;2.50;;
46815;SDS011;32787;53.316;8.670;2023-03-16T11:42:32;6.22;;;2.42;;
46815;SDS011;32787;53.316;8.670;2023-03-16T11:51:03;10.10;;;3.17;;
46815;SDS011;32787;53.316;8.670;2023-03-16T11:56:31;11.15;;;2.75;;
46815;SDS011;32787;53.316;8.670;2023-03-16T11:59:09;5.50;;;2.40;;
46815;SDS011;32787;53.316;8.670;2023-03-16T12:02:03;6.25;;;2.75;;
46815;SDS011;32787;53.316;8.670;2023-03-16T12:13:33;6.82;;;2.88;;
46815;SDS011;32787;53.316;8.670;2023-03-16T12:18:57;6.88;;;2.65;;
46815;SDS011;32787;53.316;8.670;2023-03-16T12:21:42;6.55;;;2.55;;
46815;SDS011;32787;53.316;8.670;2023-03-16T12:24:20;8.93;;;2.60;;
46815;SDS011;32787;53.316;8.670;2023-03-16T12:26:50;8.18;;;3.17;;
46815;SDS011;32787;53.316;8.670;2023-03-16T12:29:34;8.70;;;3.10;;
46815;SDS011;32787;53.316;8.670;2023-03-16T12:32:09;9.25;;;2.60;;
46815;SDS011;32787;53.316;8.670;2023-03-16T12:34:44;6.65;;;2.72;;
46815;SDS011;32787;53.316;8.670;2023-03-16T12:40:20;8.35;;;2.53;;
46815;SDS011;32787;53.316;8.670;2023-03-16T12:48:28;13.05;;;3.53;;
46815;SDS011;32787;53.316;8.670;2023-03-16T12:51:01;7.70;;;2.83;;
46815;SDS011;32787;53.316;8.670;2023-03-16T12:56:07;7.40;;;2.58;;
46815;SDS011;32787;53.316;8.670;2023-03-16T12:58:38;7.68;;;3.03;;
46815;SDS011;32787;53.316;8.670;2023-03-16T13:01:08;7.38;;;3.13;;
46815;SDS011;32787;53.316;8.670;2023-03-16T13:03:36;7.93;;;3.28;;
46815;SDS011;32787;53.316;8.670;2023-03-16T13:06:03;6.90;;;3.05;;
46815;SDS011;32787;53.316;8.670;2023-03-16T13:08:39;6.57;;;2.88;;
46815;SDS011;32787;53.316;8.670;2023-03-16T13:11:07;8.18;;;2.70;;
46815;SDS011;32787;53.316;8.670;2023-03-16T13:13:51;6.93;;;2.75;;
46815;SDS011;32787;53.316;8.670;2023-03-16T13:16:27;9.57;;;3.25;;
46815;SDS011;32787;53.316;8.670;2023-03-16T13:18:57;7.30;;;3.10;;
46815;SDS011;32787;53.316;8.670;2023-03-16T13:21:34;6.68;;;3.08;;
46815;SDS011;32787;53.316;8.670;2023-03-16T13:29:28;10.18;;;3.17;;
46815;SDS011;32787;53.316;8.670;2023-03-16T13:31:57;10.23;;;3.15;;
46815;SDS011;32787;53.316;8.670;2023-03-16T13:34:31;8.13;;;3.50;;
46815;SDS011;32787;53.316;8.670;2023-03-16T13:37:03;7.80;;;3.00;;
46815;SDS011;32787;53.316;8.670;2023-03-16T13:39:36;6.75;;;3.15;;
46815;SDS011;32787;53.316;8.670;2023-03-16T13:42:03;9.02;;;3.10;;
46815;SDS011;32787;53.316;8.670;2023-03-16T13:47:04;7.05;;;3.25;;
46815;SDS011;32787;53.316;8.670;2023-03-16T13:49:31;6.97;;;3.03;;
46815;SDS011;32787;53.316;8.670;2023-03-16T13:51:56;8.00;;;3.60;;
46815;SDS011;32787;53.316;8.670;2023-03-16T13:54:24;6.18;;;2.78;;
46815;SDS011;32787;53.316;8.670;2023-03-16T13:56:52;6.82;;;2.78;;
46815;SDS011;32787;53.316;8.670;2023-03-16T13:59:21;7.35;;;3.40;;
46815;SDS011;32787;53.316;8.670;2023-03-16T14:01:47;7.55;;;3.30;;
46815;SDS011;32787;53.316;8.670;2023-03-16T14:04:24;7.53;;;3.17;;
46815;SDS011;32787;53.316;8.670;2023-03-16T14:06:56;9.82;;;3.60;;
46815;SDS011;32787;53.316;8.670;2023-03-16T14:09:28;10.52;;;3.30;;
46815;SDS011;32787;53.316;8.670;2023-03-16T14:11:55;5.80;;;2.97;;
46815;SDS011;32787;53.316;8.670;2023-03-16T14:17:01;6.57;;;2.97;;
46815;SDS011;32787;53.316;8.670;2023-03-16T14:19:34;6.05;;;3.00;;
46815;SDS011;32787;53.316;8.670;2023-03-16T14:22:18;6.32;;;2.85;;
46815;SDS011;32787;53.316;8.670;2023-03-16T14:24:55;7.82;;;3.20;;
46815;SDS011;32787;53.316;8.670;2023-03-16T14:32:52;8.85;;;3.25;;
46815;SDS011;32787;53.316;8.670;2023-03-16T14:35:30;6.88;;;3.05;;
46815;SDS011;32787;53.316;8.670;2023-03-16T14:38:27;9.70;;;3.80;;
46815;SDS011;32787;53.316;8.670;2023-03-16T14:40:57;7.45;;;3.00;;
46815;SDS011;32787;53.316;8.670;2023-03-16T14:43:28;11.48;;;3.20;;
46815;SDS011;32787;53.316;8.670;2023-03-16T14:45:56;8.68;;;2.70;;
46815;SDS011;32787;53.316;8.670;2023-03-16T14:48:22;7.10;;;3.03;;
46815;SDS011;32787;53.316;8.670;2023-03-16T14:50:52;7.65;;;2.97;;
46815;SDS011;32787;53.316;8.670;2023-03-16T14:53:20;7.22;;;3.40;;
46815;SDS011;32787;53.316;8.670;2023-03-16T14:55:45;6.60;;;2.55;;
46815;SDS011;32787;53.316;8.670;2023-03-16T14:58:12;8.68;;;2.97;;
46815;SDS011;32787;53.316;8.670;2023-03-16T15:00:38;7.38;;;2.70;;
46815;SDS011;32787;53.316;8.670;2023-03-16T15:03:06;8.13;;;3.05;;
46815;SDS011;32787;53.316;8.670;2023-03-16T15:05:39;9.38;;;2.78;;
46815;SDS011;32787;53.316;8.670;2023-03-16T15:08:18;6.03;;;2.63;;
46815;SDS011;32787;53.316;8.670;2023-03-16T15:10:50;12.43;;;3.20;;
46815;SDS011;32787;53.316;8.670;2023-03-16T15:13:17;7.93;;;2.72;;
46815;SDS011;32787;53.316;8.670;2023-03-16T15:16:17;6.40;;;3.05;;
46815;SDS011;32787;53.316;8.670;2023-03-16T15:18:43;6.57;;;2.58;;
46815;SDS011;32787;53.316;8.670;2023-03-16T15:21:10;5.72;;;2.35;;
46815;SDS011;32787;53.316;8.670;2023-03-16T15:23:38;7.00;;;2.75;;
46815;SDS011;32787;53.316;8.670;2023-03-16T15:26:07;7.70;;;3.08;;
46815;SDS011;32787;53.316;8.670;2023-03-16T15:28:37;7.72;;;3.08;;
46815;SDS011;32787;53.316;8.670;2023-03-16T15:31:03;7.15;;;2.63;;
46815;SDS011;32787;53.316;8.670;2023-03-16T15:33:29;5.90;;;2.42;;
46815;SDS011;32787;53.316;8.670;2023-03-16T15:35:56;8.35;;;3.08;;
46815;SDS011;32787;53.316;8.670;2023-03-16T15:38:24;10.68;;;2.88;;
46815;SDS011;32787;53.316;8.670;2023-03-16T15:40:56;7.13;;;2.60;;
46815;SDS011;32787;53.316;8.670;2023-03-16T15:43:23;7.00;;;2.50;;
46815;SDS011;32787;53.316;8.670;2023-03-16T15:45:51;5.78;;;2.35;;
46815;SDS011;32787;53.316;8.670;2023-03-16T15:48:18;6.70;;;2.30;;
46815;SDS011;32787;53.316;8.670;2023-03-16T15:50:52;8.27;;;2.35;;
46815;SDS011;32787;53.316;8.670;2023-03-16T15:53:31;5.65;;;2.40;;
46815;SDS011;32787;53.316;8.670;2023-03-16T15:56:05;5.28;;;1.95;;
46815;SDS011;32787;53.316;8.670;2023-03-16T15:58:33;5.22;;;2.10;;
46815;SDS011;32787;53.316;8.670;2023-03-16T16:01:02;4.90;;;2.17;;
46815;SDS011;32787;53.316;8.670;2023-03-16T16:03:28;5.78;;;2.33;;
46815;SDS011;32787;53.316;8.670;2023-03-16T16:05:54;6.70;;;2.30;;
46815;SDS011;32787;53.316;8.670;2023-03-16T16:08:20;5.90;;;2.30;;
46815;SDS011;32787;53.316;8.670;2023-03-16T16:10:46;4.65;;;2.08;;
46815;SDS011;32787;53.316;8.670;2023-03-16T16:13:18;4.90;;;2.20;;
46815;SDS011;32787;53.316;8.670;2023-03-16T16:15:47;6.45;;;2.42;;
46815;SDS011;32787;53.316;8.670;2023-03-16T16:18:32;6.97;;;2.30;;
46815;SDS011;32787;53.316;8.670;2023-03-16T16:21:01;4.03;;;1.83;;
46815;SDS011;32787;53.316;8.670;2023-03-16T16:23:29;7.63;;;2.45;;
46815;SDS011;32787;53.316;8.670;2023-03-16T16:26:06;5.50;;;2.10;;